Главная страница
METAR-TAF:

METAR-TAF

Аэропорты :

Фор-де-Франс, Мартиника

широта: 14-36N, долгота: 061-00W, высота над уровнем моря: 5 м

Текущие метеонаблюдения

Эта сводка был подготовлена 34 минут назад, в 17:00 UTC
Ветер 18 Узел от восточно-юго-восточный
Температура 31°C
Влажность 59%
Давление 1017 hPa
Видимость 10 км и более
небольшая облачность на высоте 3000 фута
Отдельные облака на высоте 4600 фута

METAR: TFFF 171700Z AUTO 11018KT 9999 FEW030 SCT046 31/22 Q1017 NOSIG

Время: 13:34 (17:34 UTC)

Прогноз

Эта сводка был подготовлена 7 часа и 34 минут назад, в 10:00 UTC
Прогноз действительный с 17-го 12 UTC до 18-го 12 UTC
Ветер 10 Узел от восточный
Видимость 10 км и более
Отдельные облака на высоте 2000 фута
Отдельные облака на высоте 4000 фута
Вероятность 30% :
временами
С 17-го 12 UTC до 17-го 15 UTC
Видимость: 3000 м
Отдельные облака на высоте 1800 фута, мощно-кучевые.
ливневые дожди

TAF: TFFF 171000Z 1712/1812 10010KT 9999 SCT020 SCT040 PROB30 TEMPO 1712/1715 3000 SHRA SCT018TCU

Метеонаблюдения и прогнозы для более 4000 аэропортов (сводки METAR и TAF).

Имеющиеся станции представлены на карте желтыми и красными точками.

Чтобы увидеть название станции, наведите на нее мышь.

Затем щелкните, чтобы увидеть метеонаблюдения и метеопрогнозы.

Управление картой: чтобы увеличить масштаб, щелкните зеленые кнопки с черным крестиком; чтобы уменьшить масштаб, щелкните зеленую кнопку с тире; для просмотра соседних карт щелкайте зеленые стрелки.


METAR-TAF: